createdAt,value
2019-05-05T00:03:28.703Z,78.40
2019-05-05T00:08:47.016Z,78.30
2019-05-05T00:14:05.441Z,78.20
2019-05-05T00:19:29.460Z,78.20
2019-05-05T00:24:26.147Z,78.40
2019-05-05T00:29:34.702Z,78.30
2019-05-05T00:34:50.271Z,78.50
2019-05-05T00:40:00.170Z,79.20
2019-05-05T00:45:08.478Z,79.20
2019-05-05T00:50:25.099Z,79.50
2019-05-05T00:55:34.949Z,79.80
2019-05-05T01:00:56.602Z,80.40
2019-05-05T01:06:04.557Z,80.70
2019-05-05T01:11:09.479Z,81.00
2019-05-05T01:16:16.537Z,81.20
2019-05-05T01:21:25.391Z,81.50
2019-05-05T01:26:32.109Z,81.80
2019-05-05T01:31:45.060Z,82.30
2019-05-05T01:36:53.896Z,82.60
2019-05-05T01:41:58.385Z,82.60
2019-05-05T01:47:05.138Z,82.80
2019-05-05T01:52:14.890Z,82.80
2019-05-05T01:57:21.328Z,82.90
2019-05-05T02:02:34.331Z,83.10
2019-05-05T02:07:40.344Z,83.10
2019-05-05T02:12:50.608Z,83.30
2019-05-05T02:17:58.493Z,83.80
2019-05-05T02:23:05.642Z,84.40
2019-05-05T02:28:15.042Z,84.50
2019-05-05T02:33:21.608Z,84.90
2019-05-05T02:38:26.835Z,84.70
2019-05-05T02:43:36.062Z,84.70
2019-05-05T02:48:45.028Z,84.90
2019-05-05T02:53:56.069Z,84.90
2019-05-05T02:59:04.384Z,85.40
2019-05-05T03:04:16.626Z,85.70
2019-05-05T03:09:24.758Z,86.20
2019-05-05T03:14:30.660Z,86.20
2019-05-05T03:19:38.547Z,86.10
2019-05-05T03:24:49.311Z,86.30
2019-05-05T03:29:53.573Z,86.60
2019-05-05T03:35:04.383Z,86.60
2019-05-05T03:40:19.227Z,86.60
2019-05-05T03:45:24.499Z,86.50
2019-05-05T03:50:33.997Z,86.40
2019-05-05T03:55:43.954Z,86.40
2019-05-05T04:00:59.660Z,86.30
2019-05-05T04:06:29.585Z,86.10
2019-05-05T04:11:19.233Z,86.00
2019-05-05T04:17:10.061Z,86.00
2019-05-05T04:21:38.440Z,85.80
2019-05-05T04:26:47.657Z,85.80
2019-05-05T04:31:55.455Z,85.80
2019-05-05T04:37:08.464Z,86.00
2019-05-05T04:42:13.988Z,86.20
2019-05-05T04:47:24.536Z,86.30
2019-05-05T04:57:58.647Z,86.30
2019-05-05T05:02:58.028Z,86.50
2019-05-05T05:08:14.862Z,86.50
2019-05-05T05:13:19.237Z,86.50
2019-05-05T05:18:34.396Z,86.20
2019-05-05T05:23:40.428Z,86.10
2019-05-05T05:28:44.680Z,86.00
2019-05-05T05:33:52.130Z,86.10
2019-05-05T05:39:03.768Z,86.00
2019-05-05T05:44:17.108Z,86.30
2019-05-05T05:49:45.109Z,86.00
2019-05-05T05:55:08.190Z,84.10
2019-05-05T06:00:06.729Z,83.10
2019-05-05T06:05:23.852Z,84.20
2019-05-05T06:10:54.629Z,84.30
2019-05-05T06:15:47.107Z,83.40
2019-05-05T06:20:53.355Z,83.40
2019-05-05T06:25:57.407Z,83.20
2019-05-05T06:31:04.982Z,82.50
2019-05-05T06:36:09.282Z,80.60
2019-05-05T06:41:25.758Z,80.60
2019-05-05T06:46:48.061Z,79.90
2019-05-05T06:51:54.513Z,79.90
2019-05-05T06:56:58.361Z,78.70
2019-05-05T07:02:04.253Z,78.80
2019-05-05T07:07:10.507Z,77.90
2019-05-05T07:12:14.923Z,78.40
2019-05-05T07:17:19.155Z,76.60
2019-05-05T07:22:24.391Z,76.80
2019-05-05T07:27:30.516Z,75.70
2019-05-05T07:32:34.752Z,75.00
2019-05-05T07:37:39.022Z,72.80
2019-05-05T07:42:44.067Z,71.90
2019-05-05T07:47:48.477Z,71.80
2019-05-05T07:52:54.549Z,72.10
2019-05-05T07:57:58.689Z,72.30
2019-05-05T08:03:03.757Z,71.20
2019-05-05T08:08:08.106Z,72.40
2019-05-05T08:13:14.061Z,72.30
2019-05-05T08:18:20.151Z,71.20
2019-05-05T08:23:31.910Z,70.40
2019-05-05T08:28:36.698Z,69.50
2019-05-05T08:33:40.953Z,69.60
2019-05-05T08:38:45.385Z,65.90
2019-05-05T08:43:49.616Z,67.30
2019-05-05T08:48:53.881Z,66.00
2019-05-05T08:53:58.181Z,64.70
2019-05-05T08:59:03.635Z,62.30
2019-05-05T09:04:08.050Z,63.30
2019-05-05T09:09:14.241Z,62.60
2019-05-05T09:14:18.318Z,59.70
2019-05-05T09:19:23.993Z,57.20
2019-05-05T09:24:34.080Z,54.10
2019-05-05T09:29:43.984Z,56.60
2019-05-05T09:34:48.600Z,52.90
2019-05-05T09:39:55.815Z,53.50
2019-05-05T09:45:00.034Z,51.20
2019-05-05T09:50:07.921Z,51.90
2019-05-05T09:55:13.827Z,52.10
2019-05-05T10:00:18.058Z,50.90
2019-05-05T10:05:23.614Z,51.70
2019-05-05T10:10:28.007Z,51.20
2019-05-05T10:15:32.205Z,51.30
2019-05-05T10:20:36.410Z,52.00
2019-05-05T10:25:44.890Z,55.50
2019-05-05T10:30:49.174Z,55.10
2019-05-05T10:35:54.120Z,55.70
2019-05-05T10:40:58.520Z,57.20
2019-05-05T10:46:03.867Z,58.90
2019-05-05T10:51:08.209Z,60.40
2019-05-05T10:56:13.715Z,61.50
2019-05-05T11:01:18.117Z,62.80
2019-05-05T11:06:22.330Z,64.50
2019-05-05T11:11:28.175Z,62.90
2019-05-05T11:16:32.385Z,62.90
2019-05-05T11:21:36.624Z,64.40
2019-05-05T11:26:40.903Z,63.40
2019-05-05T11:31:45.206Z,61.50
2019-05-05T11:36:57.090Z,60.40
2019-05-05T11:42:01.321Z,59.00
2019-05-05T11:47:24.959Z,58.10
2019-05-05T11:52:29.240Z,59.10
2019-05-05T11:57:33.466Z,59.20
2019-05-05T12:02:37.849Z,59.00
2019-05-05T12:07:43.675Z,59.10
2019-05-05T12:12:48.094Z,65.30
2019-05-05T12:17:54.435Z,67.80
2019-05-05T12:22:59.960Z,69.20
2019-05-05T12:28:05.855Z,69.10
2019-05-05T12:33:10.218Z,70.20
2019-05-05T12:38:14.512Z,70.10
2019-05-05T12:43:18.702Z,69.50
2019-05-05T12:48:24.569Z,68.60
2019-05-05T12:53:28.780Z,66.80
2019-05-05T12:58:33.567Z,67.20
2019-05-05T13:03:38.017Z,66.70
2019-05-05T13:08:44.378Z,65.40
2019-05-05T13:13:48.560Z,63.90
2019-05-05T13:18:53.909Z,60.20
2019-05-05T13:24:04.393Z,62.10
2019-05-05T13:29:08.786Z,61.50
2019-05-05T13:34:13.673Z,60.30
2019-05-05T13:39:18.209Z,56.40
2019-05-05T13:44:27.127Z,54.40
2019-05-05T13:49:35.781Z,53.30
2019-05-05T13:54:40.065Z,52.80
2019-05-05T13:59:44.534Z,53.00
2019-05-05T14:04:48.995Z,54.30
2019-05-05T14:09:54.921Z,53.40
2019-05-05T14:14:59.756Z,51.30
2019-05-05T14:20:11.698Z,52.50
2019-05-05T14:25:13.848Z,54.30
2019-05-05T14:30:38.632Z,50.40
2019-05-05T14:35:50.464Z,46.60
2019-05-05T14:40:54.726Z,46.70
2019-05-05T14:45:58.934Z,46.80
2019-05-05T14:51:03.999Z,48.90
2019-05-05T14:56:08.374Z,47.60
2019-05-05T15:01:14.406Z,48.50
2019-05-05T15:06:26.820Z,50.00
2019-05-05T15:11:33.860Z,51.50
2019-05-05T15:16:38.125Z,52.70
2019-05-05T15:21:44.329Z,53.50
2019-05-05T15:26:52.098Z,53.10
2019-05-05T15:31:54.674Z,52.80
2019-05-05T15:36:58.991Z,52.70
2019-05-05T15:42:04.665Z,53.70
2019-05-05T15:47:09.002Z,53.70
2019-05-05T15:52:13.733Z,54.40
2019-05-05T15:57:18.330Z,54.80
2019-05-05T16:02:23.990Z,54.80
2019-05-05T16:07:28.433Z,54.30
2019-05-05T16:12:36.539Z,54.00
2019-05-05T16:17:46.997Z,54.70
2019-05-05T16:23:11.135Z,55.10
2019-05-05T16:28:15.460Z,55.90
2019-05-05T16:33:21.130Z,56.20
2019-05-05T16:38:25.431Z,56.50
2019-05-05T16:43:29.305Z,56.70
2019-05-05T16:48:34.369Z,57.10
2019-05-05T16:53:38.924Z,56.80
2019-05-05T16:58:45.106Z,57.20
2019-05-05T17:03:49.208Z,57.60
2019-05-05T17:08:53.506Z,57.00
2019-05-05T17:14:11.513Z,56.60
2019-05-05T17:19:17.616Z,55.00
2019-05-05T17:24:23.754Z,54.50
2019-05-05T17:29:27.832Z,53.80
2019-05-05T17:34:33.934Z,55.30
2019-05-05T17:39:39.771Z,55.50
2019-05-05T17:44:51.444Z,54.40
2019-05-05T17:49:59.907Z,53.80
2019-05-05T17:55:27.238Z,54.50
2019-05-05T18:00:34.081Z,55.40
2019-05-05T18:05:55.739Z,55.90
2019-05-05T18:11:01.637Z,56.10
2019-05-05T18:16:06.016Z,56.60
2019-05-05T18:21:10.242Z,57.00
2019-05-05T18:26:14.484Z,57.50
2019-05-05T18:31:18.786Z,58.00
2019-05-05T18:36:23.103Z,58.60
2019-05-05T18:41:46.878Z,60.50
2019-05-05T18:47:13.137Z,61.60
2019-05-05T18:52:16.728Z,62.00
2019-05-05T18:57:20.974Z,62.30
2019-05-05T19:02:44.937Z,62.30
2019-05-05T19:08:08.836Z,62.60
2019-05-05T19:13:13.639Z,63.00
2019-05-05T19:18:18.018Z,63.60
2019-05-05T19:23:22.225Z,64.10
2019-05-05T19:28:44.383Z,64.60
2019-05-05T19:33:56.599Z,65.10
2019-05-05T19:42:29.654Z,65.50
2019-05-05T19:44:36.589Z,65.90
2019-05-05T19:49:44.828Z,66.30
2019-05-05T19:54:51.784Z,66.70
2019-05-05T20:00:00.731Z,67.00
2019-05-05T20:05:14.095Z,67.20
2019-05-05T20:10:27.647Z,67.50
2019-05-05T20:15:39.754Z,67.90
2019-05-05T20:20:45.618Z,67.90
2019-05-05T20:31:24.292Z,68.80
2019-05-05T20:37:14.951Z,69.10
2019-05-05T20:53:50.124Z,69.60
2019-05-05T21:10:01.327Z,70.10
2019-05-05T21:15:15.500Z,70.60
2019-05-05T21:21:24.797Z,70.70
2019-05-05T21:25:54.895Z,70.80
2019-05-05T21:31:00.826Z,71.20
2019-05-05T21:36:14.545Z,71.20
2019-05-05T21:41:26.745Z,71.50
2019-05-05T21:46:34.749Z,71.60
2019-05-05T21:51:49.300Z,72.00
2019-05-05T21:58:35.495Z,72.40
2019-05-05T22:02:23.553Z,72.50
2019-05-05T22:07:26.235Z,72.90
2019-05-05T22:19:20.430Z,72.90
2019-05-05T22:22:58.331Z,73.10
2019-05-05T22:28:15.981Z,72.90
2019-05-05T22:33:21.215Z,73.10
2019-05-05T22:38:28.612Z,73.40
2019-05-05T22:43:35.401Z,73.50
2019-05-05T22:48:44.014Z,73.60
2019-05-05T22:53:50.123Z,73.90
2019-05-05T22:58:57.790Z,74.00
2019-05-05T23:04:15.103Z,74.20
2019-05-05T23:09:19.546Z,74.40
2019-05-05T23:14:34.094Z,74.50
2019-05-05T23:20:00.582Z,74.70
2019-05-05T23:25:29.477Z,75.10
2019-05-05T23:30:41.842Z,75.60
2019-05-05T23:35:47.583Z,75.60
2019-05-05T23:40:56.852Z,75.80
2019-05-05T23:46:05.889Z,75.80
2019-05-05T23:51:16.772Z,75.50
2019-05-05T23:56:28.217Z,75.60
